sensor_id;sensor_type;location;lat;lon;timestamp;temperature;humidity
53752;DHT22;41095;53.090;6.692;2023-04-15T00:02:16;7.40;99.90
53752;DHT22;41095;53.090;6.692;2023-04-15T00:04:46;7.50;99.90
53752;DHT22;41095;53.090;6.692;2023-04-15T00:07:13;7.40;99.90
53752;DHT22;41095;53.090;6.692;2023-04-15T00:09:40;7.40;99.90
53752;DHT22;41095;53.090;6.692;2023-04-15T00:12:06;7.40;99.90
53752;DHT22;41095;53.090;6.692;2023-04-15T00:14:33;7.30;99.90
53752;DHT22;41095;53.090;6.692;2023-04-15T00:17:00;7.30;99.90
53752;DHT22;41095;53.090;6.692;2023-04-15T00:19:26;7.30;99.90
53752;DHT22;41095;53.090;6.692;2023-04-15T00:21:51;7.20;99.90
53752;DHT22;41095;53.090;6.692;2023-04-15T00:24:17;7.20;99.90
53752;DHT22;41095;53.090;6.692;2023-04-15T00:26:43;7.20;99.90
53752;DHT22;41095;53.090;6.692;2023-04-15T00:29:08;7.10;99.90
53752;DHT22;41095;53.090;6.692;2023-04-15T00:31:34;7.20;99.90
53752;DHT22;41095;53.090;6.692;2023-04-15T00:34:00;7.20;99.90
53752;DHT22;41095;53.090;6.692;2023-04-15T00:36:26;7.20;99.90
53752;DHT22;41095;53.090;6.692;2023-04-15T00:38:52;7.10;99.90
53752;DHT22;41095;53.090;6.692;2023-04-15T00:41:18;7.10;99.90
53752;DHT22;41095;53.090;6.692;2023-04-15T00:43:45;7.10;99.90
53752;DHT22;41095;53.090;6.692;2023-04-15T00:46:13;7.10;99.90
53752;DHT22;41095;53.090;6.692;2023-04-15T00:48:40;7.10;99.90
53752;DHT22;41095;53.090;6.692;2023-04-15T00:51:06;7.00;99.90
53752;DHT22;41095;53.090;6.692;2023-04-15T00:53:32;7.00;99.90
53752;DHT22;41095;53.090;6.692;2023-04-15T00:55:58;7.00;99.90
53752;DHT22;41095;53.090;6.692;2023-04-15T00:58:25;7.00;99.90
53752;DHT22;41095;53.090;6.692;2023-04-15T01:00:53;7.00;99.90
53752;DHT22;41095;53.090;6.692;2023-04-15T01:03:20;7.00;99.90
53752;DHT22;41095;53.090;6.692;2023-04-15T01:05:46;6.90;99.90
53752;DHT22;41095;53.090;6.692;2023-04-15T01:08:11;6.90;99.90
53752;DHT22;41095;53.090;6.692;2023-04-15T01:10:38;6.80;99.90
53752;DHT22;41095;53.090;6.692;2023-04-15T01:13:04;6.80;99.90
53752;DHT22;41095;53.090;6.692;2023-04-15T01:15:30;6.80;99.90
53752;DHT22;41095;53.090;6.692;2023-04-15T01:17:58;6.80;99.90
53752;DHT22;41095;53.090;6.692;2023-04-15T01:20:23;6.80;99.90
53752;DHT22;41095;53.090;6.692;2023-04-15T01:22:49;6.80;99.90
53752;DHT22;41095;53.090;6.692;2023-04-15T01:25:24;6.80;99.90
53752;DHT22;41095;53.090;6.692;2023-04-15T01:27:51;6.70;99.90
53752;DHT22;41095;53.090;6.692;2023-04-15T01:30:17;6.70;99.90
53752;DHT22;41095;53.090;6.692;2023-04-15T01:32:43;6.70;99.90
53752;DHT22;41095;53.090;6.692;2023-04-15T01:35:08;6.70;99.90
53752;DHT22;41095;53.090;6.692;2023-04-15T01:37:35;6.60;99.90
53752;DHT22;41095;53.090;6.692;2023-04-15T01:40:01;6.60;99.90
53752;DHT22;41095;53.090;6.692;2023-04-15T01:42:27;6.60;99.90
53752;DHT22;41095;53.090;6.692;2023-04-15T01:44:53;6.50;99.90
53752;DHT22;41095;53.090;6.692;2023-04-15T01:47:19;6.50;99.90
53752;DHT22;41095;53.090;6.692;2023-04-15T01:49:45;6.50;99.90
53752;DHT22;41095;53.090;6.692;2023-04-15T01:52:11;6.50;99.90
53752;DHT22;41095;53.090;6.692;2023-04-15T01:54:36;6.50;99.90
53752;DHT22;41095;53.090;6.692;2023-04-15T01:57:02;6.40;99.90
53752;DHT22;41095;53.090;6.692;2023-04-15T01:59:29;6.40;99.90
53752;DHT22;41095;53.090;6.692;2023-04-15T02:01:55;6.40;99.90
53752;DHT22;41095;53.090;6.692;2023-04-15T02:04:21;6.40;99.90
53752;DHT22;41095;53.090;6.692;2023-04-15T02:06:48;6.40;99.90
53752;DHT22;41095;53.090;6.692;2023-04-15T02:09:13;6.30;99.90
53752;DHT22;41095;53.090;6.692;2023-04-15T02:11:39;6.30;99.90
53752;DHT22;41095;53.090;6.692;2023-04-15T02:14:05;5.60;99.90
53752;DHT22;41095;53.090;6.692;2023-04-15T02:16:31;6.30;99.90
53752;DHT22;41095;53.090;6.692;2023-04-15T02:18:59;6.30;99.90
53752;DHT22;41095;53.090;6.692;2023-04-15T02:21:28;6.20;99.90
53752;DHT22;41095;53.090;6.692;2023-04-15T02:23:53;6.20;99.90
53752;DHT22;41095;53.090;6.692;2023-04-15T02:26:19;6.20;99.90
53752;DHT22;41095;53.090;6.692;2023-04-15T02:28:46;6.20;99.90
53752;DHT22;41095;53.090;6.692;2023-04-15T02:31:11;6.10;99.90
53752;DHT22;41095;53.090;6.692;2023-04-15T02:33:37;6.10;99.90
53752;DHT22;41095;53.090;6.692;2023-04-15T02:36:03;6.10;99.90
53752;DHT22;41095;53.090;6.692;2023-04-15T02:38:29;6.10;99.90
53752;DHT22;41095;53.090;6.692;2023-04-15T02:40:56;6.10;99.90
53752;DHT22;41095;53.090;6.692;2023-04-15T02:43:22;6.00;99.90
53752;DHT22;41095;53.090;6.692;2023-04-15T02:45:48;6.00;99.90
53752;DHT22;41095;53.090;6.692;2023-04-15T02:48:14;6.00;99.90
53752;DHT22;41095;53.090;6.692;2023-04-15T02:50:42;6.00;99.90
53752;DHT22;41095;53.090;6.692;2023-04-15T02:53:08;5.90;99.90
53752;DHT22;41095;53.090;6.692;2023-04-15T02:55:33;5.90;99.90
53752;DHT22;41095;53.090;6.692;2023-04-15T02:57:59;6.00;99.90
53752;DHT22;41095;53.090;6.692;2023-04-15T03:00:26;5.90;99.90
53752;DHT22;41095;53.090;6.692;2023-04-15T03:02:57;5.90;99.90
53752;DHT22;41095;53.090;6.692;2023-04-15T03:05:23;5.90;99.90
53752;DHT22;41095;53.090;6.692;2023-04-15T03:07:50;5.90;99.90
53752;DHT22;41095;53.090;6.692;2023-04-15T03:10:16;5.90;99.90
53752;DHT22;41095;53.090;6.692;2023-04-15T03:12:42;5.90;99.90
53752;DHT22;41095;53.090;6.692;2023-04-15T03:15:08;5.80;99.90
53752;DHT22;41095;53.090;6.692;2023-04-15T03:17:34;5.90;99.90
53752;DHT22;41095;53.090;6.692;2023-04-15T03:20:04;6.30;99.90
53752;DHT22;41095;53.090;6.692;2023-04-15T03:22:31;5.90;99.90
53752;DHT22;41095;53.090;6.692;2023-04-15T03:24:57;5.90;99.90
53752;DHT22;41095;53.090;6.692;2023-04-15T03:27:23;5.90;99.90
53752;DHT22;41095;53.090;6.692;2023-04-15T03:29:49;5.30;99.90
53752;DHT22;41095;53.090;6.692;2023-04-15T03:32:14;5.80;99.90
53752;DHT22;41095;53.090;6.692;2023-04-15T03:34:41;5.90;99.90
53752;DHT22;41095;53.090;6.692;2023-04-15T03:37:07;5.80;99.90
53752;DHT22;41095;53.090;6.692;2023-04-15T03:39:33;5.80;99.90
53752;DHT22;41095;53.090;6.692;2023-04-15T03:41:59;5.70;99.90
53752;DHT22;41095;53.090;6.692;2023-04-15T03:44:26;5.80;99.90
53752;DHT22;41095;53.090;6.692;2023-04-15T03:46:52;5.70;99.90
53752;DHT22;41095;53.090;6.692;2023-04-15T03:49:19;5.80;99.90
53752;DHT22;41095;53.090;6.692;2023-04-15T03:51:45;5.80;99.90
53752;DHT22;41095;53.090;6.692;2023-04-15T03:54:11;5.80;99.90
53752;DHT22;41095;53.090;6.692;2023-04-15T03:56:39;5.80;99.90
53752;DHT22;41095;53.090;6.692;2023-04-15T03:59:05;5.70;99.90
53752;DHT22;41095;53.090;6.692;2023-04-15T04:01:31;5.70;99.90
53752;DHT22;41095;53.090;6.692;2023-04-15T04:03:57;5.70;99.90
53752;DHT22;41095;53.090;6.692;2023-04-15T04:06:22;5.70;99.90
53752;DHT22;41095;53.090;6.692;2023-04-15T04:08:48;5.70;99.90
53752;DHT22;41095;53.090;6.692;2023-04-15T04:11:14;5.80;99.90
53752;DHT22;41095;53.090;6.692;2023-04-15T04:13:40;5.80;99.90
53752;DHT22;41095;53.090;6.692;2023-04-15T04:16:06;5.80;99.90
53752;DHT22;41095;53.090;6.692;2023-04-15T04:18:32;5.80;99.90
53752;DHT22;41095;53.090;6.692;2023-04-15T04:20:58;5.80;99.90
53752;DHT22;41095;53.090;6.692;2023-04-15T04:23:24;5.80;99.90
53752;DHT22;41095;53.090;6.692;2023-04-15T04:25:50;5.80;99.90
53752;DHT22;41095;53.090;6.692;2023-04-15T04:28:17;5.80;99.90
53752;DHT22;41095;53.090;6.692;2023-04-15T04:30:43;5.90;99.90
53752;DHT22;41095;53.090;6.692;2023-04-15T04:33:08;5.80;99.90
53752;DHT22;41095;53.090;6.692;2023-04-15T04:35:34;5.90;99.90
53752;DHT22;41095;53.090;6.692;2023-04-15T04:38:02;5.90;99.90
53752;DHT22;41095;53.090;6.692;2023-04-15T04:40:28;5.90;99.90
53752;DHT22;41095;53.090;6.692;2023-04-15T04:42:54;6.00;99.90
53752;DHT22;41095;53.090;6.692;2023-04-15T04:45:20;5.90;99.90
53752;DHT22;41095;53.090;6.692;2023-04-15T04:47:45;5.90;99.90
53752;DHT22;41095;53.090;6.692;2023-04-15T04:50:12;5.90;99.90
53752;DHT22;41095;53.090;6.692;2023-04-15T04:52:38;5.90;99.90
53752;DHT22;41095;53.090;6.692;2023-04-15T04:55:04;5.90;99.90
53752;DHT22;41095;53.090;6.692;2023-04-15T04:57:30;5.90;99.90
53752;DHT22;41095;53.090;6.692;2023-04-15T04:59:56;5.80;99.90
53752;DHT22;41095;53.090;6.692;2023-04-15T05:02:22;5.60;99.90
53752;DHT22;41095;53.090;6.692;2023-04-15T05:04:48;5.90;99.90
53752;DHT22;41095;53.090;6.692;2023-04-15T05:07:16;5.60;99.90
53752;DHT22;41095;53.090;6.692;2023-04-15T05:09:42;5.60;99.90
53752;DHT22;41095;53.090;6.692;2023-04-15T05:12:07;5.60;99.90
53752;DHT22;41095;53.090;6.692;2023-04-15T05:14:38;5.70;99.90
53752;DHT22;41095;53.090;6.692;2023-04-15T05:17:04;5.70;99.90
53752;DHT22;41095;53.090;6.692;2023-04-15T05:19:30;5.70;99.90
53752;DHT22;41095;53.090;6.692;2023-04-15T05:21:55;5.80;99.90
53752;DHT22;41095;53.090;6.692;2023-04-15T05:24:22;5.70;99.90
53752;DHT22;41095;53.090;6.692;2023-04-15T05:26:48;5.80;99.90
53752;DHT22;41095;53.090;6.692;2023-04-15T05:29:13;5.80;99.90
53752;DHT22;41095;53.090;6.692;2023-04-15T05:31:39;5.80;99.90
53752;DHT22;41095;53.090;6.692;2023-04-15T05:34:05;5.80;99.90
53752;DHT22;41095;53.090;6.692;2023-04-15T05:36:31;5.90;99.90
53752;DHT22;41095;53.090;6.692;2023-04-15T05:38:57;6.00;99.90
53752;DHT22;41095;53.090;6.692;2023-04-15T05:41:23;6.10;99.90
53752;DHT22;41095;53.090;6.692;2023-04-15T05:43:48;6.20;99.90
53752;DHT22;41095;53.090;6.692;2023-04-15T05:46:14;6.20;99.90
53752;DHT22;41095;53.090;6.692;2023-04-15T05:48:40;6.30;99.90
53752;DHT22;41095;53.090;6.692;2023-04-15T05:51:06;6.40;99.90
53752;DHT22;41095;53.090;6.692;2023-04-15T05:53:31;6.50;99.90
53752;DHT22;41095;53.090;6.692;2023-04-15T05:55:57;6.60;99.90
53752;DHT22;41095;53.090;6.692;2023-04-15T05:58:23;6.60;99.90
53752;DHT22;41095;53.090;6.692;2023-04-15T06:00:49;6.80;99.90
53752;DHT22;41095;53.090;6.692;2023-04-15T06:03:15;6.80;99.90
53752;DHT22;41095;53.090;6.692;2023-04-15T06:05:41;6.90;99.90
53752;DHT22;41095;53.090;6.692;2023-04-15T06:08:06;7.00;99.90
53752;DHT22;41095;53.090;6.692;2023-04-15T06:10:34;7.00;99.90
53752;DHT22;41095;53.090;6.692;2023-04-15T06:13:01;7.10;99.90
53752;DHT22;41095;53.090;6.692;2023-04-15T06:15:28;7.20;99.90
53752;DHT22;41095;53.090;6.692;2023-04-15T06:17:54;7.20;99.90
53752;DHT22;41095;53.090;6.692;2023-04-15T06:20:20;7.40;99.90
53752;DHT22;41095;53.090;6.692;2023-04-15T06:22:45;7.50;99.90
53752;DHT22;41095;53.090;6.692;2023-04-15T06:25:11;7.60;99.90
53752;DHT22;41095;53.090;6.692;2023-04-15T06:27:37;7.60;99.90
53752;DHT22;41095;53.090;6.692;2023-04-15T06:30:03;7.80;99.90
53752;DHT22;41095;53.090;6.692;2023-04-15T06:32:29;7.80;99.90
53752;DHT22;41095;53.090;6.692;2023-04-15T06:34:56;7.90;99.90
53752;DHT22;41095;53.090;6.692;2023-04-15T06:37:22;8.00;99.90
53752;DHT22;41095;53.090;6.692;2023-04-15T06:39:47;8.10;99.90
53752;DHT22;41095;53.090;6.692;2023-04-15T06:42:13;8.10;99.90
53752;DHT22;41095;53.090;6.692;2023-04-15T06:44:39;8.20;99.90
53752;DHT22;41095;53.090;6.692;2023-04-15T06:47:05;8.20;99.90
53752;DHT22;41095;53.090;6.692;2023-04-15T06:49:30;8.30;99.90
53752;DHT22;41095;53.090;6.692;2023-04-15T06:51:56;8.30;99.90
53752;DHT22;41095;53.090;6.692;2023-04-15T06:54:22;8.40;99.90
53752;DHT22;41095;53.090;6.692;2023-04-15T06:56:47;8.40;99.90
53752;DHT22;41095;53.090;6.692;2023-04-15T06:59:13;8.40;99.90
53752;DHT22;41095;53.090;6.692;2023-04-15T07:01:42;8.50;99.90
53752;DHT22;41095;53.090;6.692;2023-04-15T07:04:08;8.40;99.90
53752;DHT22;41095;53.090;6.692;2023-04-15T07:06:33;8.50;99.90
53752;DHT22;41095;53.090;6.692;2023-04-15T07:09:00;8.60;99.90
53752;DHT22;41095;53.090;6.692;2023-04-15T07:11:26;8.70;99.90
53752;DHT22;41095;53.090;6.692;2023-04-15T07:13:52;8.70;99.90
53752;DHT22;41095;53.090;6.692;2023-04-15T07:16:17;8.80;99.90
53752;DHT22;41095;53.090;6.692;2023-04-15T07:18:43;8.10;99.90
53752;DHT22;41095;53.090;6.692;2023-04-15T07:21:09;8.80;99.90
53752;DHT22;41095;53.090;6.692;2023-04-15T07:23:35;8.80;99.90
53752;DHT22;41095;53.090;6.692;2023-04-15T07:26:00;8.90;99.90
53752;DHT22;41095;53.090;6.692;2023-04-15T07:28:26;8.90;99.90
53752;DHT22;41095;53.090;6.692;2023-04-15T07:30:52;9.00;99.90
53752;DHT22;41095;53.090;6.692;2023-04-15T07:33:18;9.00;99.90
53752;DHT22;41095;53.090;6.692;2023-04-15T07:35:44;9.00;99.90
53752;DHT22;41095;53.090;6.692;2023-04-15T07:38:09;9.00;99.90
53752;DHT22;41095;53.090;6.692;2023-04-15T07:40:37;9.10;99.90
53752;DHT22;41095;53.090;6.692;2023-04-15T07:43:04;9.00;99.90
53752;DHT22;41095;53.090;6.692;2023-04-15T07:45:30;9.00;99.90
53752;DHT22;41095;53.090;6.692;2023-04-15T07:47:56;9.00;99.90
53752;DHT22;41095;53.090;6.692;2023-04-15T07:50:22;9.00;99.90
53752;DHT22;41095;53.090;6.692;2023-04-15T07:52:49;9.00;99.90
53752;DHT22;41095;53.090;6.692;2023-04-15T07:55:16;9.00;99.90
53752;DHT22;41095;53.090;6.692;2023-04-15T07:57:44;9.00;99.90
53752;DHT22;41095;53.090;6.692;2023-04-15T08:00:12;9.10;99.90
53752;DHT22;41095;53.090;6.692;2023-04-15T08:02:38;9.10;99.90
53752;DHT22;41095;53.090;6.692;2023-04-15T08:05:04;9.10;99.90
53752;DHT22;41095;53.090;6.692;2023-04-15T08:07:30;9.20;99.90
53752;DHT22;41095;53.090;6.692;2023-04-15T08:09:56;9.30;99.90
53752;DHT22;41095;53.090;6.692;2023-04-15T08:12:22;9.30;99.90
53752;DHT22;41095;53.090;6.692;2023-04-15T08:14:50;9.30;99.90
53752;DHT22;41095;53.090;6.692;2023-04-15T08:17:16;9.30;99.90
53752;DHT22;41095;53.090;6.692;2023-04-15T08:19:41;9.40;99.90
53752;DHT22;41095;53.090;6.692;2023-04-15T08:22:07;9.40;99.90
53752;DHT22;41095;53.090;6.692;2023-04-15T08:24:33;9.30;99.90
53752;DHT22;41095;53.090;6.692;2023-04-15T08:26:59;9.20;99.90
53752;DHT22;41095;53.090;6.692;2023-04-15T08:29:25;9.20;99.90
53752;DHT22;41095;53.090;6.692;2023-04-15T08:31:52;9.20;99.90
53752;DHT22;41095;53.090;6.692;2023-04-15T08:34:18;9.20;99.90
53752;DHT22;41095;53.090;6.692;2023-04-15T08:36:44;9.20;99.90
53752;DHT22;41095;53.090;6.692;2023-04-15T08:39:10;9.20;99.90
53752;DHT22;41095;53.090;6.692;2023-04-15T08:41:46;9.20;99.90
53752;DHT22;41095;53.090;6.692;2023-04-15T08:44:13;9.10;99.90
53752;DHT22;41095;53.090;6.692;2023-04-15T08:46:40;9.00;99.90
53752;DHT22;41095;53.090;6.692;2023-04-15T08:49:10;9.10;99.90
53752;DHT22;41095;53.090;6.692;2023-04-15T08:51:39;9.00;99.90
53752;DHT22;41095;53.090;6.692;2023-04-15T08:54:05;9.00;99.90
53752;DHT22;41095;53.090;6.692;2023-04-15T08:56:32;9.00;99.90
53752;DHT22;41095;53.090;6.692;2023-04-15T08:58:58;8.90;99.90
53752;DHT22;41095;53.090;6.692;2023-04-15T09:01:25;8.90;99.90
53752;DHT22;41095;53.090;6.692;2023-04-15T09:03:51;9.00;99.90
53752;DHT22;41095;53.090;6.692;2023-04-15T09:06:20;9.00;99.90
53752;DHT22;41095;53.090;6.692;2023-04-15T09:08:46;9.00;99.90
53752;DHT22;41095;53.090;6.692;2023-04-15T09:11:12;9.10;99.90
53752;DHT22;41095;53.090;6.692;2023-04-15T09:13:38;9.30;99.90
53752;DHT22;41095;53.090;6.692;2023-04-15T09:16:05;9.50;99.90
53752;DHT22;41095;53.090;6.692;2023-04-15T09:18:35;9.80;99.90
53752;DHT22;41095;53.090;6.692;2023-04-15T09:21:12;9.90;99.90
53752;DHT22;41095;53.090;6.692;2023-04-15T09:23:40;9.80;99.90
53752;DHT22;41095;53.090;6.692;2023-04-15T09:26:06;9.80;99.90
53752;DHT22;41095;53.090;6.692;2023-04-15T09:28:32;9.70;99.90
53752;DHT22;41095;53.090;6.692;2023-04-15T09:31:01;9.70;99.90
53752;DHT22;41095;53.090;6.692;2023-04-15T09:33:28;9.70;99.90
53752;DHT22;41095;53.090;6.692;2023-04-15T09:36:04;9.70;99.90
53752;DHT22;41095;53.090;6.692;2023-04-15T09:38:30;9.60;99.90
53752;DHT22;41095;53.090;6.692;2023-04-15T09:40:57;9.70;99.90
53752;DHT22;41095;53.090;6.692;2023-04-15T09:43:37;9.60;99.90
53752;DHT22;41095;53.090;6.692;2023-04-15T09:46:06;9.70;99.90
53752;DHT22;41095;53.090;6.692;2023-04-15T09:48:31;9.70;99.90
53752;DHT22;41095;53.090;6.692;2023-04-15T09:50:58;9.70;99.90
53752;DHT22;41095;53.090;6.692;2023-04-15T09:53:24;9.60;99.90
53752;DHT22;41095;53.090;6.692;2023-04-15T09:55:57;9.70;99.90
53752;DHT22;41095;53.090;6.692;2023-04-15T09:58:28;9.70;99.90
53752;DHT22;41095;53.090;6.692;2023-04-15T10:00:55;9.70;99.90
53752;DHT22;41095;53.090;6.692;2023-04-15T10:03:28;9.80;99.90
53752;DHT22;41095;53.090;6.692;2023-04-15T10:05:56;9.90;99.90
53752;DHT22;41095;53.090;6.692;2023-04-15T10:08:27;9.90;99.90
53752;DHT22;41095;53.090;6.692;2023-04-15T10:10:54;10.00;99.90
53752;DHT22;41095;53.090;6.692;2023-04-15T10:13:25;9.80;99.90
53752;DHT22;41095;53.090;6.692;2023-04-15T10:16:00;9.90;99.90
53752;DHT22;41095;53.090;6.692;2023-04-15T10:18:28;9.70;99.90
53752;DHT22;41095;53.090;6.692;2023-04-15T10:20:55;9.70;99.90
53752;DHT22;41095;53.090;6.692;2023-04-15T10:23:22;9.70;99.90
53752;DHT22;41095;53.090;6.692;2023-04-15T10:25:51;9.70;99.90
53752;DHT22;41095;53.090;6.692;2023-04-15T10:28:18;9.60;99.90
53752;DHT22;41095;53.090;6.692;2023-04-15T10:30:44;9.60;99.90
53752;DHT22;41095;53.090;6.692;2023-04-15T10:33:12;9.70;99.90
53752;DHT22;41095;53.090;6.692;2023-04-15T10:35:39;9.70;99.90
53752;DHT22;41095;53.090;6.692;2023-04-15T10:41:31;9.80;99.90
53752;DHT22;41095;53.090;6.692;2023-04-15T10:43:59;9.80;99.90
53752;DHT22;41095;53.090;6.692;2023-04-15T10:46:38;9.80;99.90
53752;DHT22;41095;53.090;6.692;2023-04-15T10:49:08;9.80;99.90
53752;DHT22;41095;53.090;6.692;2023-04-15T10:51:38;9.90;99.90
53752;DHT22;41095;53.090;6.692;2023-04-15T10:54:14;9.90;99.90
53752;DHT22;41095;53.090;6.692;2023-04-15T10:56:44;9.90;99.90
53752;DHT22;41095;53.090;6.692;2023-04-15T10:59:10;9.90;99.90
53752;DHT22;41095;53.090;6.692;2023-04-15T11:02:05;9.90;99.90
53752;DHT22;41095;53.090;6.692;2023-04-15T11:07:46;9.60;99.90
53752;DHT22;41095;53.090;6.692;2023-04-15T11:12:39;9.80;99.90
53752;DHT22;41095;53.090;6.692;2023-04-15T11:15:28;9.70;99.90
53752;DHT22;41095;53.090;6.692;2023-04-15T11:17:55;9.70;99.90
53752;DHT22;41095;53.090;6.692;2023-04-15T11:20:22;9.70;99.90
53752;DHT22;41095;53.090;6.692;2023-04-15T11:22:49;9.70;99.90
53752;DHT22;41095;53.090;6.692;2023-04-15T11:25:27;9.60;99.90
53752;DHT22;41095;53.090;6.692;2023-04-15T11:27:54;9.70;99.90
53752;DHT22;41095;53.090;6.692;2023-04-15T11:30:22;9.80;99.90
53752;DHT22;41095;53.090;6.692;2023-04-15T11:32:56;9.70;99.90
53752;DHT22;41095;53.090;6.692;2023-04-15T11:35:22;9.90;99.90
53752;DHT22;41095;53.090;6.692;2023-04-15T11:37:48;9.80;99.90
53752;DHT22;41095;53.090;6.692;2023-04-15T11:40:15;10.10;99.90
53752;DHT22;41095;53.090;6.692;2023-04-15T11:42:45;10.00;99.90
53752;DHT22;41095;53.090;6.692;2023-04-15T11:45:13;9.90;99.90
53752;DHT22;41095;53.090;6.692;2023-04-15T11:47:40;9.80;99.90
53752;DHT22;41095;53.090;6.692;2023-04-15T11:50:33;9.90;99.90
53752;DHT22;41095;53.090;6.692;2023-04-15T11:53:00;10.00;99.90
53752;DHT22;41095;53.090;6.692;2023-04-15T11:55:27;10.00;99.90
53752;DHT22;41095;53.090;6.692;2023-04-15T11:58:09;10.00;99.90
53752;DHT22;41095;53.090;6.692;2023-04-15T12:00:35;10.10;99.90
53752;DHT22;41095;53.090;6.692;2023-04-15T12:06:15;10.20;99.90
53752;DHT22;41095;53.090;6.692;2023-04-15T12:16:34;9.90;99.90
53752;DHT22;41095;53.090;6.692;2023-04-15T12:19:04;10.00;99.90
53752;DHT22;41095;53.090;6.692;2023-04-15T12:21:34;10.00;99.90
53752;DHT22;41095;53.090;6.692;2023-04-15T12:24:02;10.10;99.90
53752;DHT22;41095;53.090;6.692;2023-04-15T12:26:32;10.00;99.90
53752;DHT22;41095;53.090;6.692;2023-04-15T12:29:05;10.10;99.90
53752;DHT22;41095;53.090;6.692;2023-04-15T12:31:33;10.10;99.90
53752;DHT22;41095;53.090;6.692;2023-04-15T12:34:00;10.40;99.90
53752;DHT22;41095;53.090;6.692;2023-04-15T12:36:26;9.90;99.90
53752;DHT22;41095;53.090;6.692;2023-04-15T12:38:53;9.80;99.90
53752;DHT22;41095;53.090;6.692;2023-04-15T12:41:22;9.90;99.90
53752;DHT22;41095;53.090;6.692;2023-04-15T12:43:49;9.80;99.90
53752;DHT22;41095;53.090;6.692;2023-04-15T12:46:15;9.80;99.90
53752;DHT22;41095;53.090;6.692;2023-04-15T12:48:40;9.70;99.90
53752;DHT22;41095;53.090;6.692;2023-04-15T12:51:06;9.60;99.90
53752;DHT22;41095;53.090;6.692;2023-04-15T12:53:31;9.50;99.90
53752;DHT22;41095;53.090;6.692;2023-04-15T12:55:59;9.40;99.90
53752;DHT22;41095;53.090;6.692;2023-04-15T12:58:24;9.40;99.90
53752;DHT22;41095;53.090;6.692;2023-04-15T13:00:50;9.40;99.90
53752;DHT22;41095;53.090;6.692;2023-04-15T13:03:16;9.30;99.90
53752;DHT22;41095;53.090;6.692;2023-04-15T13:05:42;9.30;99.90
53752;DHT22;41095;53.090;6.692;2023-04-15T13:08:07;9.30;99.90
53752;DHT22;41095;53.090;6.692;2023-04-15T13:10:34;9.30;99.90
53752;DHT22;41095;53.090;6.692;2023-04-15T13:13:04;9.30;99.90
53752;DHT22;41095;53.090;6.692;2023-04-15T13:15:30;9.30;99.90
53752;DHT22;41095;53.090;6.692;2023-04-15T13:17:56;9.30;99.90
53752;DHT22;41095;53.090;6.692;2023-04-15T13:20:22;9.20;99.90
53752;DHT22;41095;53.090;6.692;2023-04-15T13:22:48;9.20;99.90
53752;DHT22;41095;53.090;6.692;2023-04-15T13:25:13;9.20;99.90
53752;DHT22;41095;53.090;6.692;2023-04-15T13:27:39;9.20;99.90
53752;DHT22;41095;53.090;6.692;2023-04-15T13:30:05;9.20;99.90
53752;DHT22;41095;53.090;6.692;2023-04-15T13:32:32;9.20;99.90
53752;DHT22;41095;53.090;6.692;2023-04-15T13:34:57;9.20;99.90
53752;DHT22;41095;53.090;6.692;2023-04-15T13:37:27;9.10;99.90
53752;DHT22;41095;53.090;6.692;2023-04-15T13:39:54;9.20;99.90
53752;DHT22;41095;53.090;6.692;2023-04-15T13:42:21;9.20;99.90
53752;DHT22;41095;53.090;6.692;2023-04-15T13:44:46;9.20;99.90
53752;DHT22;41095;53.090;6.692;2023-04-15T13:47:12;9.10;99.90
53752;DHT22;41095;53.090;6.692;2023-04-15T13:49:40;9.10;99.90
53752;DHT22;41095;53.090;6.692;2023-04-15T13:52:06;8.80;99.90
53752;DHT22;41095;53.090;6.692;2023-04-15T13:54:32;9.10;99.90
53752;DHT22;41095;53.090;6.692;2023-04-15T13:56:57;9.10;99.90
53752;DHT22;41095;53.090;6.692;2023-04-15T13:59:23;9.20;99.90
53752;DHT22;41095;53.090;6.692;2023-04-15T14:01:49;9.20;99.90
53752;DHT22;41095;53.090;6.692;2023-04-15T14:04:14;9.20;99.90
53752;DHT22;41095;53.090;6.692;2023-04-15T14:06:40;9.10;99.90
53752;DHT22;41095;53.090;6.692;2023-04-15T14:09:06;9.10;99.90
53752;DHT22;41095;53.090;6.692;2023-04-15T14:11:31;9.20;99.90
53752;DHT22;41095;53.090;6.692;2023-04-15T14:13:59;9.10;99.90
53752;DHT22;41095;53.090;6.692;2023-04-15T14:16:25;9.10;99.90
53752;DHT22;41095;53.090;6.692;2023-04-15T14:18:51;9.10;99.90
53752;DHT22;41095;53.090;6.692;2023-04-15T14:21:17;9.10;99.90
53752;DHT22;41095;53.090;6.692;2023-04-15T14:23:42;9.10;99.90
53752;DHT22;41095;53.090;6.692;2023-04-15T14:26:08;9.10;99.90
53752;DHT22;41095;53.090;6.692;2023-04-15T14:28:34;9.10;99.90
53752;DHT22;41095;53.090;6.692;2023-04-15T14:31:00;9.00;99.90
53752;DHT22;41095;53.090;6.692;2023-04-15T14:33:26;9.10;99.90
53752;DHT22;41095;53.090;6.692;2023-04-15T14:35:51;9.00;99.90
53752;DHT22;41095;53.090;6.692;2023-04-15T14:38:17;9.10;99.90
53752;DHT22;41095;53.090;6.692;2023-04-15T14:40:43;9.10;99.90
53752;DHT22;41095;53.090;6.692;2023-04-15T14:43:09;9.10;99.90
53752;DHT22;41095;53.090;6.692;2023-04-15T14:45:36;9.10;99.90
53752;DHT22;41095;53.090;6.692;2023-04-15T14:48:03;9.10;99.90
53752;DHT22;41095;53.090;6.692;2023-04-15T14:50:31;9.00;99.90
53752;DHT22;41095;53.090;6.692;2023-04-15T14:52:57;9.00;99.90
53752;DHT22;41095;53.090;6.692;2023-04-15T14:55:23;9.00;99.90
53752;DHT22;41095;53.090;6.692;2023-04-15T14:57:48;9.00;99.90
53752;DHT22;41095;53.090;6.692;2023-04-15T15:00:14;9.00;99.90
53752;DHT22;41095;53.090;6.692;2023-04-15T15:02:40;8.90;99.90
53752;DHT22;41095;53.090;6.692;2023-04-15T15:05:08;8.90;99.90
53752;DHT22;41095;53.090;6.692;2023-04-15T15:07:34;8.90;99.90
53752;DHT22;41095;53.090;6.692;2023-04-15T15:10:01;8.90;99.90
53752;DHT22;41095;53.090;6.692;2023-04-15T15:12:27;8.90;99.90
53752;DHT22;41095;53.090;6.692;2023-04-15T15:14:54;8.80;99.90
53752;DHT22;41095;53.090;6.692;2023-04-15T15:17:20;8.80;99.90
53752;DHT22;41095;53.090;6.692;2023-04-15T15:19:46;8.80;99.90
53752;DHT22;41095;53.090;6.692;2023-04-15T15:22:12;8.80;99.90
53752;DHT22;41095;53.090;6.692;2023-04-15T15:24:38;8.80;99.90
53752;DHT22;41095;53.090;6.692;2023-04-15T15:27:03;8.80;99.90
53752;DHT22;41095;53.090;6.692;2023-04-15T15:29:29;8.90;99.90
53752;DHT22;41095;53.090;6.692;2023-04-15T15:31:55;8.90;99.90
53752;DHT22;41095;53.090;6.692;2023-04-15T15:34:21;8.90;99.90
53752;DHT22;41095;53.090;6.692;2023-04-15T15:36:47;8.80;99.90
53752;DHT22;41095;53.090;6.692;2023-04-15T15:39:13;8.90;99.90
53752;DHT22;41095;53.090;6.692;2023-04-15T15:41:38;8.80;99.90
53752;DHT22;41095;53.090;6.692;2023-04-15T15:44:04;8.80;99.90
53752;DHT22;41095;53.090;6.692;2023-04-15T15:46:30;8.70;99.90
53752;DHT22;41095;53.090;6.692;2023-04-15T15:48:56;8.80;99.90
53752;DHT22;41095;53.090;6.692;2023-04-15T15:51:22;8.80;99.90
53752;DHT22;41095;53.090;6.692;2023-04-15T15:53:48;8.80;99.90
53752;DHT22;41095;53.090;6.692;2023-04-15T15:56:14;8.80;99.90
53752;DHT22;41095;53.090;6.692;2023-04-15T15:58:41;8.80;99.90
53752;DHT22;41095;53.090;6.692;2023-04-15T16:01:09;8.70;99.90
53752;DHT22;41095;53.090;6.692;2023-04-15T16:03:35;8.70;99.90